Airfield :
LOGIN :

Register | Disclaimer

   EN    FR    IT 

 










Legend :    VFR   Marginal VFR   IFR   Intensive IFR   Very Intensive IFR
Visi :
Ceiling :
>= 8 km
>= 3000ft
5 to 8 km
1000 to 3000 ft
1500m to 5 km
500 to 1000 ft
800 to 1500m
200 to 500 ft
< 800m
< 200 ft
Symbols :   Thunderstorms  Fog  Heavy snow  Heavy precipitations  Wind > 20 kt
SIGMETs :     Misc.  Thunderstorms  Icing  Turbulence  Mountain Waves  Volcanic Ashes






- Airport Elevation : 160 ft
- IATA code : LRT


LFRH - Lorient Lann Bihoue

CURRENT METAR :
  • 231730Z AUTO 03003KT CAVOK 06/M00 Q0999 NOSIG

EXPIRED METARs :
  • 231700Z AUTO 02003KT CAVOK 06/00 Q0999 NOSIG
  • 231630Z AUTO 01003KT CAVOK 06/01 Q0999 NOSIG
  • 231600Z AUTO 35003KT 320V020 9999 FEW044 07/01 Q0999 NOSIG
  • 231530Z AUTO 35004KT 330V030 9999 BKN043 BKN180 BKN220 07/01 Q0999 NOSIG
  • 231500Z AUTO 35006KT 320V020 9999 SCT039 BKN045 BKN210 08/01 Q0999 TEMPO SCT020TCU

TAF TAF LFRH
Valid from the 23 at 18:00 until the 24 at 18:00 UTC


231700Z 2318/2418 VRB02KT CAVOK
BECMG 2400/2403 BKN014 OVC025
TEMPO 2403/2409 4900 -RA
BECMG 2404/2406 27015G25KT
TEMPO 2411/2417 4500 -SHRA BKN014TCU



MET'MAP, your aeronautical weather chart ! - Copyright ORBIFLY December 2007 - Disclaimer

ORBIFLY MET'MAP TEAM :

Programming & Development : Alexandra Zaïnal
Concept & original design : Baudouin d'Aumeries
Assistance for programming : Marc-Olivier Méhu
Technical & hardware support : Manuel Goepfert

Contact : metmap@orbifly.com




SOURCES & CREDITS :

   NOAA